sensor_id;sensor_type;location;lat;lon;timestamp;pressure;altitude;pressure_sealevel;temperature;humidity
37848;BME280;23688;33.130;-117.188;2022-10-04T00:01:56;99251.75;;;21.57;78.95
37848;BME280;23688;33.130;-117.188;2022-10-04T00:04:41;99260.56;;;21.53;79.57
37848;BME280;23688;33.130;-117.188;2022-10-04T00:09:44;99257.03;;;21.52;79.80
37848;BME280;23688;33.130;-117.188;2022-10-04T00:12:21;99255.38;;;21.34;80.78
37848;BME280;23688;33.130;-117.188;2022-10-04T00:14:50;99254.50;;;21.42;81.02
37848;BME280;23688;33.130;-117.188;2022-10-04T00:17:27;99246.56;;;21.40;79.75
37848;BME280;23688;33.130;-117.188;2022-10-04T00:19:55;99249.22;;;21.34;80.67
37848;BME280;23688;33.130;-117.188;2022-10-04T00:22:31;99249.41;;;20.99;81.97
37848;BME280;23688;33.130;-117.188;2022-10-04T00:27:36;99261.84;;;20.73;85.30
37848;BME280;23688;33.130;-117.188;2022-10-04T00:40:38;99265.22;;;21.03;83.87
37848;BME280;23688;33.130;-117.188;2022-10-04T00:46:06;99256.56;;;20.70;84.54
37848;BME280;23688;33.130;-117.188;2022-10-04T01:01:42;99290.91;;;20.04;89.03
37848;BME280;23688;33.130;-117.188;2022-10-04T01:04:47;99283.91;;;19.96;89.94
37848;BME280;23688;33.130;-117.188;2022-10-04T01:07:18;99294.47;;;20.00;90.02
37848;BME280;23688;33.130;-117.188;2022-10-04T01:09:52;99299.72;;;19.91;90.42
37848;BME280;23688;33.130;-117.188;2022-10-04T01:12:36;99293.56;;;19.84;91.02
37848;BME280;23688;33.130;-117.188;2022-10-04T01:17:37;99297.06;;;20.19;89.06
37848;BME280;23688;33.130;-117.188;2022-10-04T01:20:27;99287.44;;;19.93;89.44
37848;BME280;23688;33.130;-117.188;2022-10-04T01:22:54;99291.78;;;20.06;89.80
37848;BME280;23688;33.130;-117.188;2022-10-04T01:25:46;99301.44;;;20.26;88.54
37848;BME280;23688;33.130;-117.188;2022-10-04T01:28:13;99297.97;;;19.96;89.89
37848;BME280;23688;33.130;-117.188;2022-10-04T01:30:43;99292.63;;;19.64;91.40
37848;BME280;23688;33.130;-117.188;2022-10-04T01:33:11;99287.38;;;19.56;92.37
37848;BME280;23688;33.130;-117.188;2022-10-04T01:35:38;99299.66;;;19.51;92.76
37848;BME280;23688;33.130;-117.188;2022-10-04T01:38:05;99308.41;;;19.50;92.94
37848;BME280;23688;33.130;-117.188;2022-10-04T01:40:33;99318.00;;;19.33;94.70
37848;BME280;23688;33.130;-117.188;2022-10-04T01:43:04;99325.06;;;19.37;94.74
37848;BME280;23688;33.130;-117.188;2022-10-04T01:48:07;99321.47;;;19.15;96.61
37848;BME280;23688;33.130;-117.188;2022-10-04T01:50:42;99325.00;;;19.24;96.70
37848;BME280;23688;33.130;-117.188;2022-10-04T01:53:20;99325.91;;;19.36;95.85
37848;BME280;23688;33.130;-117.188;2022-10-04T01:56:12;99332.09;;;19.45;94.88
37848;BME280;23688;33.130;-117.188;2022-10-04T01:58:50;99320.63;;;19.22;96.19
37848;BME280;23688;33.130;-117.188;2022-10-04T02:03:58;99327.56;;;19.06;97.97
37848;BME280;23688;33.130;-117.188;2022-10-04T02:06:28;99336.44;;;19.30;96.76
37848;BME280;23688;33.130;-117.188;2022-10-04T02:08:56;99338.19;;;19.28;96.44
37848;BME280;23688;33.130;-117.188;2022-10-04T02:11:26;99334.72;;;19.44;95.38
37848;BME280;23688;33.130;-117.188;2022-10-04T02:13:55;99341.75;;;19.48;95.26
37848;BME280;23688;33.130;-117.188;2022-10-04T02:16:23;99339.13;;;19.53;94.24
37848;BME280;23688;33.130;-117.188;2022-10-04T02:18:53;99347.94;;;19.67;94.09
37848;BME280;23688;33.130;-117.188;2022-10-04T02:21:19;99354.16;;;19.74;93.37
37848;BME280;23688;33.130;-117.188;2022-10-04T02:23:47;99360.28;;;19.70;93.22
37848;BME280;23688;33.130;-117.188;2022-10-04T02:26:15;99317.19;;;19.46;93.90
37848;BME280;23688;33.130;-117.188;2022-10-04T02:28:43;99361.09;;;19.59;94.06
37848;BME280;23688;33.130;-117.188;2022-10-04T02:31:13;99360.22;;;19.57;93.99
37848;BME280;23688;33.130;-117.188;2022-10-04T02:33:59;99352.25;;;19.40;94.66
37848;BME280;23688;33.130;-117.188;2022-10-04T02:36:40;99353.91;;;19.15;96.75
37848;BME280;23688;33.130;-117.188;2022-10-04T02:39:14;99359.22;;;19.24;96.96
37848;BME280;23688;33.130;-117.188;2022-10-04T02:41:59;99360.88;;;19.02;98.31
37848;BME280;23688;33.130;-117.188;2022-10-04T02:44:50;99357.44;;;19.14;97.78
37848;BME280;23688;33.130;-117.188;2022-10-04T02:47:27;99353.03;;;19.16;97.76
37848;BME280;23688;33.130;-117.188;2022-10-04T02:50:04;99361.03;;;19.38;96.70
37848;BME280;23688;33.130;-117.188;2022-10-04T02:52:42;99367.94;;;19.11;97.82
37848;BME280;23688;33.130;-117.188;2022-10-04T02:55:21;99367.00;;;18.95;98.89
37848;BME280;23688;33.130;-117.188;2022-10-04T02:57:49;99372.22;;;18.91;100.00
37848;BME280;23688;33.130;-117.188;2022-10-04T03:00:25;99383.72;;;19.10;99.01
37848;BME280;23688;33.130;-117.188;2022-10-04T03:05:58;99380.31;;;19.31;97.03
37848;BME280;23688;33.130;-117.188;2022-10-04T03:08:27;99389.97;;;19.33;96.83
37848;BME280;23688;33.130;-117.188;2022-10-04T03:10:56;99365.41;;;19.40;95.58
37848;BME280;23688;33.130;-117.188;2022-10-04T03:13:26;99390.06;;;19.59;95.01
37848;BME280;23688;33.130;-117.188;2022-10-04T03:15:53;99392.69;;;19.55;95.12
37848;BME280;23688;33.130;-117.188;2022-10-04T03:18:20;99386.47;;;19.40;94.98
37848;BME280;23688;33.130;-117.188;2022-10-04T03:20:48;99401.47;;;19.54;94.89
37848;BME280;23688;33.130;-117.188;2022-10-04T03:23:18;99389.16;;;19.51;94.55
37848;BME280;23688;33.130;-117.188;2022-10-04T03:25:57;99401.44;;;19.48;95.06
37848;BME280;23688;33.130;-117.188;2022-10-04T03:28:28;99410.16;;;19.34;95.84
37848;BME280;23688;33.130;-117.188;2022-10-04T03:30:54;99404.00;;;19.29;96.52
37848;BME280;23688;33.130;-117.188;2022-10-04T03:33:24;99393.41;;;19.21;96.67
37848;BME280;23688;33.130;-117.188;2022-10-04T03:35:54;99404.00;;;19.29;96.38
37848;BME280;23688;33.130;-117.188;2022-10-04T03:38:23;99374.97;;;19.18;96.12
37848;BME280;23688;33.130;-117.188;2022-10-04T03:40:56;99409.22;;;19.23;96.84
37848;BME280;23688;33.130;-117.188;2022-10-04T03:43:28;99410.03;;;19.11;98.32
37848;BME280;23688;33.130;-117.188;2022-10-04T03:46:00;99407.44;;;19.14;97.92
37848;BME280;23688;33.130;-117.188;2022-10-04T03:48:50;99416.28;;;19.27;97.31
37848;BME280;23688;33.130;-117.188;2022-10-04T03:51:20;99408.47;;;19.47;95.60
37848;BME280;23688;33.130;-117.188;2022-10-04T03:53:56;99421.63;;;19.50;95.90
37848;BME280;23688;33.130;-117.188;2022-10-04T03:56:30;99411.88;;;19.24;96.53
37848;BME280;23688;33.130;-117.188;2022-10-04T03:58:57;99431.16;;;19.23;97.11
37848;BME280;23688;33.130;-117.188;2022-10-04T04:07:11;99396.78;;;18.94;98.95
37848;BME280;23688;33.130;-117.188;2022-10-04T04:10:45;99414.28;;;18.86;100.00
37848;BME280;23688;33.130;-117.188;2022-10-04T04:12:50;99427.28;;;18.72;100.00
37848;BME280;23688;33.130;-117.188;2022-10-04T04:15:20;99410.81;;;18.96;100.00
37848;BME280;23688;33.130;-117.188;2022-10-04T04:17:51;99432.06;;;19.33;99.01
37848;BME280;23688;33.130;-117.188;2022-10-04T04:20:35;99425.84;;;19.19;99.27
37848;BME280;23688;33.130;-117.188;2022-10-04T04:25:47;99379.41;;;19.29;97.98
37848;BME280;23688;33.130;-117.188;2022-10-04T04:29:14;99418.16;;;19.65;97.19
37848;BME280;23688;33.130;-117.188;2022-10-04T04:31:43;99421.75;;;19.79;95.58
37848;BME280;23688;33.130;-117.188;2022-10-04T04:34:17;99427.94;;;19.92;94.52
37848;BME280;23688;33.130;-117.188;2022-10-04T04:36:44;99411.25;;;19.96;93.53
37848;BME280;23688;33.130;-117.188;2022-10-04T04:39:19;99420.06;;;20.03;93.64
37848;BME280;23688;33.130;-117.188;2022-10-04T04:42:15;99417.44;;;20.00;93.14
37848;BME280;23688;33.130;-117.188;2022-10-04T04:44:50;99416.53;;;20.01;93.01
37848;BME280;23688;33.130;-117.188;2022-10-04T04:50:09;99425.34;;;20.10;93.09
37848;BME280;23688;33.130;-117.188;2022-10-04T04:52:39;99420.06;;;20.00;93.06
37848;BME280;23688;33.130;-117.188;2022-10-04T04:55:17;99432.34;;;19.98;93.40
37848;BME280;23688;33.130;-117.188;2022-10-04T04:57:45;99427.06;;;19.92;93.28
37848;BME280;23688;33.130;-117.188;2022-10-04T05:00:23;99433.22;;;20.01;93.67
37848;BME280;23688;33.130;-117.188;2022-10-04T05:02:59;99425.31;;;19.98;93.67
37848;BME280;23688;33.130;-117.188;2022-10-04T05:05:32;99402.47;;;19.99;93.58
37848;BME280;23688;33.130;-117.188;2022-10-04T05:10:35;99414.81;;;20.12;92.94
37848;BME280;23688;33.130;-117.188;2022-10-04T05:13:02;99407.75;;;20.14;92.37
37848;BME280;23688;33.130;-117.188;2022-10-04T05:15:37;99412.19;;;20.20;92.68
37848;BME280;23688;33.130;-117.188;2022-10-04T05:20:50;99399.88;;;20.20;92.18
37848;BME280;23688;33.130;-117.188;2022-10-04T05:23:18;99413.06;;;20.36;91.56
37848;BME280;23688;33.130;-117.188;2022-10-04T05:25:45;99410.44;;;20.36;91.53
37848;BME280;23688;33.130;-117.188;2022-10-04T05:28:12;99402.53;;;20.34;91.62
37848;BME280;23688;33.130;-117.188;2022-10-04T05:33:23;99402.53;;;20.29;91.39
37848;BME280;23688;33.130;-117.188;2022-10-04T05:41:41;99414.81;;;20.50;90.04
37848;BME280;23688;33.130;-117.188;2022-10-04T05:44:26;99421.84;;;20.50;89.62
37848;BME280;23688;33.130;-117.188;2022-10-04T05:47:00;99406.91;;;20.40;89.57
37848;BME280;23688;33.130;-117.188;2022-10-04T05:49:35;99403.41;;;20.33;89.72
37848;BME280;23688;33.130;-117.188;2022-10-04T05:52:35;99423.59;;;20.31;90.27
37848;BME280;23688;33.130;-117.188;2022-10-04T06:01:05;99418.31;;;20.11;91.92
37848;BME280;23688;33.130;-117.188;2022-10-04T06:06:58;99428.88;;;20.20;91.67
37848;BME280;23688;33.130;-117.188;2022-10-04T06:12:32;99413.91;;;20.12;92.04
37848;BME280;23688;33.130;-117.188;2022-10-04T06:20:16;99421.84;;;20.25;91.26
37848;BME280;23688;33.130;-117.188;2022-10-04T06:22:47;99420.97;;;20.25;91.17
37848;BME280;23688;33.130;-117.188;2022-10-04T06:25:30;99410.44;;;20.22;91.14
37848;BME280;23688;33.130;-117.188;2022-10-04T06:30:39;99399.00;;;20.23;90.56
37848;BME280;23688;33.130;-117.188;2022-10-04T06:33:29;99413.06;;;20.22;90.47
37848;BME280;23688;33.130;-117.188;2022-10-04T06:44:30;99414.78;;;20.09;91.05
37848;BME280;23688;33.130;-117.188;2022-10-04T07:01:02;99420.00;;;19.84;92.52
37848;BME280;23688;33.130;-117.188;2022-10-04T07:06:26;99419.97;;;19.72;93.49
37848;BME280;23688;33.130;-117.188;2022-10-04T07:08:56;99413.81;;;19.65;93.58
37848;BME280;23688;33.130;-117.188;2022-10-04T07:14:47;99384.75;;;19.44;94.09
37848;BME280;23688;33.130;-117.188;2022-10-04T07:17:22;99416.41;;;19.64;93.83
37848;BME280;23688;33.130;-117.188;2022-10-04T07:19:51;99400.59;;;19.62;93.62
37848;BME280;23688;33.130;-117.188;2022-10-04T07:22:33;99403.25;;;19.67;93.42
37848;BME280;23688;33.130;-117.188;2022-10-04T07:25:29;99413.84;;;19.72;93.64
37848;BME280;23688;33.130;-117.188;2022-10-04T07:28:11;99396.25;;;19.66;93.81
37848;BME280;23688;33.130;-117.188;2022-10-04T07:31:23;99410.34;;;19.74;94.05
37848;BME280;23688;33.130;-117.188;2022-10-04T07:34:19;99406.81;;;19.72;94.10
37848;BME280;23688;33.130;-117.188;2022-10-04T07:36:54;99406.81;;;19.72;93.85
37848;BME280;23688;33.130;-117.188;2022-10-04T07:39:29;99387.50;;;19.69;94.27
37848;BME280;23688;33.130;-117.188;2022-10-04T07:45:32;99398.94;;;19.77;93.91
37848;BME280;23688;33.130;-117.188;2022-10-04T07:48:15;99407.72;;;19.79;94.16
37848;BME280;23688;33.130;-117.188;2022-10-04T07:53:17;99409.50;;;19.87;93.92
37848;BME280;23688;33.130;-117.188;2022-10-04T08:01:23;99406.00;;;19.95;94.03
37848;BME280;23688;33.130;-117.188;2022-10-04T08:04:17;99409.50;;;19.98;94.23
37848;BME280;23688;33.130;-117.188;2022-10-04T08:07:01;99399.84;;;19.99;94.25
37848;BME280;23688;33.130;-117.188;2022-10-04T08:09:50;99402.50;;;20.08;94.20
37848;BME280;23688;33.130;-117.188;2022-10-04T08:12:42;99396.34;;;20.10;93.80
37848;BME280;23688;33.130;-117.188;2022-10-04T08:26:11;99395.44;;;19.96;95.03
37848;BME280;23688;33.130;-117.188;2022-10-04T08:43:14;99375.25;;;19.89;95.69
37848;BME280;23688;33.130;-117.188;2022-10-04T08:48:43;99370.84;;;19.89;95.89
37848;BME280;23688;33.130;-117.188;2022-10-04T08:57:11;99374.38;;;20.05;95.03
37848;BME280;23688;33.130;-117.188;2022-10-04T09:17:48;99361.22;;;20.08;93.53
37848;BME280;23688;33.130;-117.188;2022-10-04T09:26:03;99356.81;;;20.18;91.83
37848;BME280;23688;33.130;-117.188;2022-10-04T09:43:05;99346.28;;;20.07;91.80
37848;BME280;23688;33.130;-117.188;2022-10-04T09:51:34;99334.00;;;20.05;92.14
37848;BME280;23688;33.130;-117.188;2022-10-04T10:00:19;99330.47;;;20.12;92.00
37848;BME280;23688;33.130;-117.188;2022-10-04T10:03:19;99333.97;;;20.08;91.92
37848;BME280;23688;33.130;-117.188;2022-10-04T10:23:36;99309.41;;;20.17;91.96
37848;BME280;23688;33.130;-117.188;2022-10-04T10:31:49;99304.97;;;20.23;91.66
37848;BME280;23688;33.130;-117.188;2022-10-04T10:37:42;99309.38;;;20.23;91.44
37848;BME280;23688;33.130;-117.188;2022-10-04T10:45:37;99291.81;;;20.20;90.85
37848;BME280;23688;33.130;-117.188;2022-10-04T10:51:16;99289.16;;;20.14;90.81
37848;BME280;23688;33.130;-117.188;2022-10-04T11:08:26;99289.19;;;20.08;91.87
37848;BME280;23688;33.130;-117.188;2022-10-04T11:17:34;99289.19;;;20.08;91.81
37848;BME280;23688;33.130;-117.188;2022-10-04T11:34:15;99294.47;;;20.00;91.72
37848;BME280;23688;33.130;-117.188;2022-10-04T11:39:46;99294.44;;;19.94;92.60
37848;BME280;23688;33.130;-117.188;2022-10-04T11:51:21;99297.09;;;20.09;91.93
37848;BME280;23688;33.130;-117.188;2022-10-04T11:59:46;99252.28;;;19.88;92.37
37848;BME280;23688;33.130;-117.188;2022-10-04T12:02:45;99278.63;;;20.02;92.07
37848;BME280;23688;33.130;-117.188;2022-10-04T12:05:17;99257.56;;;19.91;92.50
37848;BME280;23688;33.130;-117.188;2022-10-04T12:08:19;99271.59;;;19.92;92.74
37848;BME280;23688;33.130;-117.188;2022-10-04T12:22:42;99289.13;;;19.66;94.83
37848;BME280;23688;33.130;-117.188;2022-10-04T12:33:57;99281.19;;;19.53;96.90
37848;BME280;23688;33.130;-117.188;2022-10-04T12:50:44;99297.00;;;19.65;95.80
37848;BME280;23688;33.130;-117.188;2022-10-04T13:04:10;99309.34;;;19.80;96.87
37848;BME280;23688;33.130;-117.188;2022-10-04T13:15:20;99310.25;;;19.85;95.63
37848;BME280;23688;33.130;-117.188;2022-10-04T13:21:05;99312.00;;;19.84;95.71
37848;BME280;23688;33.130;-117.188;2022-10-04T13:31:25;99312.00;;;19.84;95.87
37848;BME280;23688;33.130;-117.188;2022-10-04T13:46:05;99315.53;;;19.80;95.69
37848;BME280;23688;33.130;-117.188;2022-10-04T13:48:55;99307.59;;;19.79;95.88
37848;BME280;23688;33.130;-117.188;2022-10-04T13:51:57;99325.16;;;19.92;95.39
37848;BME280;23688;33.130;-117.188;2022-10-04T13:55:16;99325.16;;;19.84;95.64
37848;BME280;23688;33.130;-117.188;2022-10-04T13:58:19;99338.34;;;19.86;95.45
37848;BME280;23688;33.130;-117.188;2022-10-04T14:06:24;99341.88;;;19.86;95.84
37848;BME280;23688;33.130;-117.188;2022-10-04T14:09:21;99340.97;;;19.77;96.21
37848;BME280;23688;33.130;-117.188;2022-10-04T14:17:50;99336.59;;;19.82;96.13
37848;BME280;23688;33.130;-117.188;2022-10-04T14:26:27;99354.19;;;19.98;95.85
37848;BME280;23688;33.130;-117.188;2022-10-04T14:52:10;99384.78;;;19.58;98.67
37848;BME280;23688;33.130;-117.188;2022-10-04T14:54:49;99384.75;;;19.47;99.63
37848;BME280;23688;33.130;-117.188;2022-10-04T15:10:54;99400.69;;;19.76;99.74
37848;BME280;23688;33.130;-117.188;2022-10-04T15:37:44;99420.06;;;20.00;97.92
37848;BME280;23688;33.130;-117.188;2022-10-04T15:40:34;99424.50;;;20.22;96.81
37848;BME280;23688;33.130;-117.188;2022-10-04T15:43:14;99428.88;;;20.33;96.10
37848;BME280;23688;33.130;-117.188;2022-10-04T15:55:09;99453.44;;;19.96;98.65
37848;BME280;23688;33.130;-117.188;2022-10-04T16:00:12;99448.19;;;20.13;96.99
37848;BME280;23688;33.130;-117.188;2022-10-04T16:06:08;99449.09;;;20.24;95.67
37848;BME280;23688;33.130;-117.188;2022-10-04T16:11:08;99459.63;;;20.20;96.36
37848;BME280;23688;33.130;-117.188;2022-10-04T16:21:36;99463.94;;;19.87;97.83
37848;BME280;23688;33.130;-117.188;2022-10-04T16:34:36;99472.78;;;20.09;97.28
37848;BME280;23688;33.130;-117.188;2022-10-04T16:39:54;99471.09;;;20.42;95.87
37848;BME280;23688;33.130;-117.188;2022-10-04T16:50:42;99468.44;;;21.19;91.14
37848;BME280;23688;33.130;-117.188;2022-10-04T16:53:28;99461.34;;;21.37;89.62
37848;BME280;23688;33.130;-117.188;2022-10-04T16:56:09;99466.66;;;21.28;88.11
37848;BME280;23688;33.130;-117.188;2022-10-04T17:04:21;99467.53;;;21.36;89.46
37848;BME280;23688;33.130;-117.188;2022-10-04T17:10:03;99468.44;;;21.11;89.75
37848;BME280;23688;33.130;-117.188;2022-10-04T17:18:41;99459.47;;;21.76;83.78
37848;BME280;23688;33.130;-117.188;2022-10-04T17:22:12;99452.34;;;21.94;84.87
37848;BME280;23688;33.130;-117.188;2022-10-04T17:26:57;99452.31;;;21.97;83.12
37848;BME280;23688;33.130;-117.188;2022-10-04T17:41:19;99445.31;;;21.90;81.88
37848;BME280;23688;33.130;-117.188;2022-10-04T17:49:32;99431.09;;;22.09;80.93
37848;BME280;23688;33.130;-117.188;2022-10-04T17:52:26;99437.97;;;22.39;80.86
37848;BME280;23688;33.130;-117.188;2022-10-04T17:55:25;99426.66;;;22.13;81.68
37848;BME280;23688;33.130;-117.188;2022-10-04T17:58:02;99437.22;;;22.17;81.91
37848;BME280;23688;33.130;-117.188;2022-10-04T18:00:48;99423.94;;;22.30;81.31
37848;BME280;23688;33.130;-117.188;2022-10-04T18:03:19;99430.09;;;22.30;80.97
37848;BME280;23688;33.130;-117.188;2022-10-04T18:05:57;99422.94;;;22.46;80.73
37848;BME280;23688;33.130;-117.188;2022-10-04T18:14:09;99418.34;;;22.68;78.10
37848;BME280;23688;33.130;-117.188;2022-10-04T18:22:20;99403.28;;;22.73;77.41
37848;BME280;23688;33.130;-117.188;2022-10-04T18:27:30;99404.00;;;22.91;76.80
37848;BME280;23688;33.130;-117.188;2022-10-04T18:34:58;99393.50;;;23.60;73.15
37848;BME280;23688;33.130;-117.188;2022-10-04T18:37:35;99389.09;;;23.58;73.93
37848;BME280;23688;33.130;-117.188;2022-10-04T18:42:54;99381.03;;;23.67;73.29
37848;BME280;23688;33.130;-117.188;2022-10-04T18:45:28;99389.41;;;24.03;73.03
37848;BME280;23688;33.130;-117.188;2022-10-04T18:47:58;99388.72;;;23.90;71.87
37848;BME280;23688;33.130;-117.188;2022-10-04T18:50:38;99375.94;;;23.52;73.76
37848;BME280;23688;33.130;-117.188;2022-10-04T18:58:32;99361.97;;;24.04;71.30
37848;BME280;23688;33.130;-117.188;2022-10-04T19:12:15;99366.72;;;24.38;71.63
37848;BME280;23688;33.130;-117.188;2022-10-04T19:14:58;99363.53;;;24.70;70.32
37848;BME280;23688;33.130;-117.188;2022-10-04T19:26:38;99365.94;;;24.32;71.64
37848;BME280;23688;33.130;-117.188;2022-10-04T19:34:30;99347.28;;;24.39;70.15
37848;BME280;23688;33.130;-117.188;2022-10-04T19:37:19;99338.63;;;24.26;71.44
37848;BME280;23688;33.130;-117.188;2022-10-04T19:43:10;99332.81;;;24.58;71.01
37848;BME280;23688;33.130;-117.188;2022-10-04T19:48:37;99333.38;;;24.74;68.38
37848;BME280;23688;33.130;-117.188;2022-10-04T19:51:13;99336.75;;;24.32;71.61
37848;BME280;23688;33.130;-117.188;2022-10-04T19:53:43;99329.00;;;24.20;72.05
37848;BME280;23688;33.130;-117.188;2022-10-04T19:56:23;99328.16;;;24.18;72.39
37848;BME280;23688;33.130;-117.188;2022-10-04T19:59:34;99329.84;;;24.22;72.65
37848;BME280;23688;33.130;-117.188;2022-10-04T20:01:56;99327.53;;;24.55;70.49
37848;BME280;23688;33.130;-117.188;2022-10-04T20:04:23;99322.34;;;24.49;70.62
37848;BME280;23688;33.130;-117.188;2022-10-04T20:07:26;99322.53;;;24.37;70.85
37848;BME280;23688;33.130;-117.188;2022-10-04T20:10:29;99334.88;;;24.39;71.02
37848;BME280;23688;33.130;-117.188;2022-10-04T20:15:47;99336.19;;;24.13;72.08
37848;BME280;23688;33.130;-117.188;2022-10-04T20:31:01;99297.88;;;24.80;69.04
37848;BME280;23688;33.130;-117.188;2022-10-04T20:36:01;99313.94;;;24.22;71.18
37848;BME280;23688;33.130;-117.188;2022-10-04T20:38:57;99314.81;;;24.23;71.41
37848;BME280;23688;33.130;-117.188;2022-10-04T20:43:57;99308.41;;;24.34;71.76
37848;BME280;23688;33.130;-117.188;2022-10-04T20:46:36;99284.47;;;24.39;70.46
37848;BME280;23688;33.130;-117.188;2022-10-04T20:49:05;99300.13;;;24.53;70.01
37848;BME280;23688;33.130;-117.188;2022-10-04T20:51:49;99289.25;;;24.68;68.93
37848;BME280;23688;33.130;-117.188;2022-10-04T20:54:20;99278.22;;;24.88;68.96
37848;BME280;23688;33.130;-117.188;2022-10-04T20:56:49;99280.22;;;24.77;69.12
37848;BME280;23688;33.130;-117.188;2022-10-04T20:59:20;99267.06;;;24.23;70.35
37848;BME280;23688;33.130;-117.188;2022-10-04T21:02:02;99276.81;;;24.21;71.81
37848;BME280;23688;33.130;-117.188;2022-10-04T21:04:36;99268.84;;;24.21;71.18
37848;BME280;23688;33.130;-117.188;2022-10-04T21:07:20;99255.88;;;24.55;70.10
37848;BME280;23688;33.130;-117.188;2022-10-04T21:09:47;99242.66;;;24.52;69.96
37848;BME280;23688;33.130;-117.188;2022-10-04T21:18:06;99260.91;;;24.21;72.58
37848;BME280;23688;33.130;-117.188;2022-10-04T21:20:50;99247.91;;;24.55;70.15
37848;BME280;23688;33.130;-117.188;2022-10-04T21:23:19;99246.53;;;24.81;69.52
37848;BME280;23688;33.130;-117.188;2022-10-04T21:25:48;99250.22;;;25.14;67.45
37848;BME280;23688;33.130;-117.188;2022-10-04T21:28:23;99241.81;;;24.95;68.82
37848;BME280;23688;33.130;-117.188;2022-10-04T21:30:49;99246.16;;;25.39;67.74
37848;BME280;23688;33.130;-117.188;2022-10-04T21:33:16;99241.22;;;25.60;65.23
37848;BME280;23688;33.130;-117.188;2022-10-04T21:35:42;99211.38;;;25.10;66.71
37848;BME280;23688;33.130;-117.188;2022-10-04T21:38:09;99230.50;;;25.27;66.67
37848;BME280;23688;33.130;-117.188;2022-10-04T21:40:35;99231.69;;;25.12;66.92
37848;BME280;23688;33.130;-117.188;2022-10-04T21:43:02;99237.03;;;24.67;69.04
37848;BME280;23688;33.130;-117.188;2022-10-04T21:45:29;99235.75;;;24.42;70.18
37848;BME280;23688;33.130;-117.188;2022-10-04T21:47:55;99226.09;;;24.38;70.76
37848;BME280;23688;33.130;-117.188;2022-10-04T21:50:23;99216.56;;;24.74;69.17
37848;BME280;23688;33.130;-117.188;2022-10-04T21:52:51;99214.41;;;24.91;68.02
37848;BME280;23688;33.130;-117.188;2022-10-04T21:55:19;99220.06;;;25.18;66.53
37848;BME280;23688;33.130;-117.188;2022-10-04T21:57:45;99208.41;;;25.25;66.00
37848;BME280;23688;33.130;-117.188;2022-10-04T22:00:14;99230.16;;;25.01;67.85
37848;BME280;23688;33.130;-117.188;2022-10-04T22:02:40;99214.06;;;24.66;68.46
37848;BME280;23688;33.130;-117.188;2022-10-04T22:05:06;99222.22;;;24.55;69.13
37848;BME280;23688;33.130;-117.188;2022-10-04T22:07:33;99218.63;;;24.60;69.72
37848;BME280;23688;33.130;-117.188;2022-10-04T22:09:59;99217.06;;;24.91;68.41
37848;BME280;23688;33.130;-117.188;2022-10-04T22:12:25;99232.94;;;25.36;66.32
37848;BME280;23688;33.130;-117.188;2022-10-04T22:14:53;99222.41;;;25.32;66.28
37848;BME280;23688;33.130;-117.188;2022-10-04T22:17:20;99220.38;;;25.43;66.13
37848;BME280;23688;33.130;-117.188;2022-10-04T22:19:47;99224.22;;;25.67;64.07
37848;BME280;23688;33.130;-117.188;2022-10-04T22:22:15;99208.84;;;25.44;65.61
37848;BME280;23688;33.130;-117.188;2022-10-04T22:24:42;99227.16;;;25.56;64.60
37848;BME280;23688;33.130;-117.188;2022-10-04T22:27:17;99227.63;;;25.36;65.77
37848;BME280;23688;33.130;-117.188;2022-10-04T22:29:44;99216.03;;;25.76;64.95
37848;BME280;23688;33.130;-117.188;2022-10-04T22:32:23;99235.34;;;26.19;62.29
37848;BME280;23688;33.130;-117.188;2022-10-04T22:35:09;99225.72;;;25.79;63.65
37848;BME280;23688;33.130;-117.188;2022-10-04T22:37:36;99226.03;;;25.29;65.54
37848;BME280;23688;33.130;-117.188;2022-10-04T22:40:04;99232.84;;;25.41;65.59
37848;BME280;23688;33.130;-117.188;2022-10-04T22:42:31;99241.78;;;25.74;64.63
37848;BME280;23688;33.130;-117.188;2022-10-04T22:44:59;99230.63;;;25.97;62.65
37848;BME280;23688;33.130;-117.188;2022-10-04T22:47:30;99223.69;;;25.90;62.90
37848;BME280;23688;33.130;-117.188;2022-10-04T22:49:56;99228.53;;;25.73;63.71
37848;BME280;23688;33.130;-117.188;2022-10-04T22:52:24;99216.72;;;25.49;64.05
37848;BME280;23688;33.130;-117.188;2022-10-04T22:54:52;99205.63;;;25.30;63.80
37848;BME280;23688;33.130;-117.188;2022-10-04T22:57:19;99198.47;;;25.69;62.56
37848;BME280;23688;33.130;-117.188;2022-10-04T22:59:51;99213.63;;;26.01;61.48
37848;BME280;23688;33.130;-117.188;2022-10-04T23:02:22;99202.88;;;26.06;61.29
37848;BME280;23688;33.130;-117.188;2022-10-04T23:04:57;99200.41;;;26.00;61.60
37848;BME280;23688;33.130;-117.188;2022-10-04T23:07:25;99199.97;;;25.81;61.84
37848;BME280;23688;33.130;-117.188;2022-10-04T23:09:53;99196.81;;;25.28;63.60
37848;BME280;23688;33.130;-117.188;2022-10-04T23:12:19;99202.66;;;25.03;65.32
37848;BME280;23688;33.130;-117.188;2022-10-04T23:14:45;99200.56;;;24.77;66.03
37848;BME280;23688;33.130;-117.188;2022-10-04T23:17:27;99207.28;;;24.02;68.27
37848;BME280;23688;33.130;-117.188;2022-10-04T23:19:56;99218.19;;;23.85;69.87
37848;BME280;23688;33.130;-117.188;2022-10-04T23:22:29;99204.00;;;24.37;68.46
37848;BME280;23688;33.130;-117.188;2022-10-04T23:24:55;99207.53;;;24.38;69.17
37848;BME280;23688;33.130;-117.188;2022-10-04T23:27:22;99207.19;;;24.08;69.40
37848;BME280;23688;33.130;-117.188;2022-10-04T23:29:59;99208.00;;;24.13;69.96
37848;BME280;23688;33.130;-117.188;2022-10-04T23:32:27;99212.06;;;24.31;68.47
37848;BME280;23688;33.130;-117.188;2022-10-04T23:34:55;99213.09;;;24.24;69.50